Time;durP1;ratioP1;P1;durP2;ratioP2;P2;SDS_P1;SDS_P2;PMS_P1;PMS_P2;Temp;Humidity;BMP_temperature;BMP_pressure;BME280_temperature;BME280_humidity;BME280_pressure;Samples;Min_cycle;Max_cycle;Signal;HPM_P1;HPM_P2
2021/01/28 00:01:10;;;;;;;22.57;11.67;;;;;;;-4.36;74.96;92128.00;1819563;78;21352;-73
2021/01/28 00:03:38;;;;;;;20.20;10.97;;;;;;;-4.40;75.14;92126.56;1794155;78;21167;-73
2021/01/28 00:06:06;;;;;;;18.47;10.73;;;;;;;-4.43;75.46;92129.91;1847045;76;21561;-73
2021/01/28 00:08:34;;;;;;;16.20;9.90;;;;;;;-4.48;75.61;92133.53;1859784;76;21050;-73
2021/01/28 00:11:02;;;;;;;20.30;10.13;;;;;;;-4.51;75.91;92130.24;1844272;77;21082;-73
2021/01/28 00:13:30;;;;;;;14.63;8.10;;;;;;;-4.54;76.27;92132.78;1840049;78;21631;-73
2021/01/28 00:15:57;;;;;;;16.87;9.13;;;;;;;-4.55;76.63;92132.02;1835169;78;21073;-73
2021/01/28 00:18:25;;;;;;;19.00;10.20;;;;;;;-4.54;76.98;92135.44;1822653;78;21158;-73
2021/01/28 00:20:53;;;;;;;17.77;10.07;;;;;;;-4.54;77.24;92132.78;1802886;77;21155;-73
2021/01/28 00:23:20;;;;;;;15.47;9.27;;;;;;;-4.55;77.42;92129.36;1817805;76;21149;-72
2021/01/28 00:25:48;;;;;;;15.97;9.07;;;;;;;-4.59;77.84;92127.68;1866076;76;21189;-72
2021/01/28 00:28:18;;;;;;;13.43;6.77;;;;;;;-4.61;78.20;92122.72;1811417;79;21162;-73
2021/01/28 00:30:50;;;;;;;13.67;8.37;;;;;;;-4.56;78.32;92123.81;1866956;76;21130;-73
2021/01/28 00:33:21;;;;;;;11.27;7.13;;;;;;;-4.57;78.36;92124.92;1853784;76;21606;-71
2021/01/28 00:35:49;;;;;;;14.50;7.97;;;;;;;-4.58;78.67;92122.06;1859019;76;21109;-72
2021/01/28 00:38:24;;;;;;;16.77;8.97;;;;;;;-4.63;78.79;92122.27;1865271;76;21176;-72
2021/01/28 00:40:52;;;;;;;17.83;9.43;;;;;;;-4.69;79.19;92117.75;1845238;77;21125;-72
2021/01/28 00:43:20;;;;;;;14.90;8.33;;;;;;;-4.72;79.28;92123.70;1840334;78;21109;-72
2021/01/28 00:45:48;;;;;;;17.03;8.13;;;;;;;-4.75;79.42;92121.71;1835199;78;21157;-72
2021/01/28 00:48:17;;;;;;;13.83;8.17;;;;;;;-4.73;79.62;92120.84;1825688;78;21099;-73
2021/01/28 00:50:44;;;;;;;12.40;7.67;;;;;;;-4.72;79.66;92113.09;1808455;78;21209;-72
2021/01/28 00:53:14;;;;;;;15.47;8.80;;;;;;;-4.71;79.84;92109.33;1803455;77;21130;-72
2021/01/28 00:55:42;;;;;;;24.57;11.87;;;;;;;-4.70;79.91;92110.11;1847872;77;21573;-73
2021/01/28 00:58:10;;;;;;;17.30;9.33;;;;;;;-4.73;79.98;92113.44;1903087;75;21146;-73
2021/01/28 01:00:41;;;;;;;19.30;10.50;;;;;;;-4.74;80.10;92107.89;1877539;75;21408;-72
2021/01/28 01:03:11;;;;;;;35.70;16.53;;;;;;;-4.74;80.15;92101.27;1842291;77;21352;-72
2021/01/28 01:05:39;;;;;;;34.60;18.53;;;;;;;-4.77;80.33;92107.26;1843460;77;21182;-72
2021/01/28 01:08:11;;;;;;;25.63;13.73;;;;;;;-4.72;80.57;92101.72;1816239;76;21621;-72
2021/01/28 01:10:46;;;;;;;23.80;13.43;;;;;;;-4.69;80.41;92104.48;1875343;76;21153;-72
2021/01/28 01:13:17;;;;;;;24.23;13.15;;;;;;;-4.64;80.52;92095.52;1786526;77;21575;-74
2021/01/28 01:15:45;;;;;;;24.57;12.23;;;;;;;-4.63;80.45;92090.43;1866896;76;21938;-73
2021/01/28 01:18:15;;;;;;;19.53;10.37;;;;;;;-4.65;80.44;92092.10;1854137;76;21154;-73
2021/01/28 01:20:45;;;;;;;20.53;11.03;;;;;;;-4.67;80.44;92094.30;1851465;76;21153;-73
2021/01/28 01:23:14;;;;;;;21.00;10.80;;;;;;;-4.68;80.56;92095.41;1846289;76;21879;-73
2021/01/28 01:25:46;;;;;;;27.90;13.70;;;;;;;-4.69;80.59;92091.22;1802404;79;21167;-73
2021/01/28 01:28:14;;;;;;;23.33;12.83;;;;;;;-4.68;80.71;92087.45;1880005;74;21806;-73
2021/01/28 01:30:43;;;;;;;26.17;12.30;;;;;;;-4.65;80.71;92080.16;1828754;76;21074;-73
2021/01/28 01:33:11;;;;;;;20.40;10.23;;;;;;;-4.67;80.69;92082.92;1847652;74;21540;-73
2021/01/28 01:35:40;;;;;;;23.80;11.53;;;;;;;-4.72;80.86;92080.50;1860466;76;21688;-75
2021/01/28 01:38:09;;;;;;;26.83;10.70;;;;;;;-4.75;80.92;92087.80;1816566;76;21585;-73
2021/01/28 01:40:41;;;;;;;31.10;14.43;;;;;;;-4.80;81.06;92082.72;1856111;76;22031;-73
2021/01/28 01:43:10;;;;;;;27.00;13.03;;;;;;;-4.84;81.23;92083.94;1819198;76;21126;-73
2021/01/28 01:45:46;;;;;;;24.83;12.13;;;;;;;-4.85;81.38;92081.59;1859045;76;21195;-73
2021/01/28 01:48:21;;;;;;;27.63;12.20;;;;;;;-4.89;81.44;92079.63;1869041;76;21599;-73
2021/01/28 01:51:04;;;;;;;26.57;12.60;;;;;;;-4.89;81.62;92075.66;1853442;77;21036;-73
2021/01/28 01:53:35;;;;;;;21.80;10.00;;;;;;;-4.86;81.74;92079.50;1845968;77;21920;-73
2021/01/28 01:56:05;;;;;;;18.27;9.30;;;;;;;-4.84;81.67;92070.67;1832274;78;21564;-73
2021/01/28 01:59:05;;;;;;;21.77;9.67;;;;;;;-4.86;81.61;92078.17;1882566;75;21081;-73
2021/01/28 02:02:03;;;;;;;17.63;9.40;;;;;;;-4.88;81.66;92072.45;1812676;79;21187;-74
2021/01/28 02:04:33;;;;;;;18.03;9.23;;;;;;;-4.85;81.80;92061.70;1834659;77;21043;-73
2021/01/28 02:07:21;;;;;;;30.63;13.30;;;;;;;-4.80;81.67;92068.13;1844049;77;21637;-73
2021/01/28 02:10:11;;;;;;;38.10;18.17;;;;;;;-4.74;81.52;92059.63;1833911;76;21103;-73
2021/01/28 02:12:41;;;;;;;39.03;17.47;;;;;;;-4.69;81.23;92066.58;1860045;76;21610;-73
2021/01/28 02:15:11;;;;;;;45.70;20.17;;;;;;;-4.70;81.18;92058.37;1867663;76;21139;-72
2021/01/28 02:17:42;;;;;;;38.20;17.77;;;;;;;-4.71;81.17;92059.50;1881913;75;21445;-74
2021/01/28 02:20:42;;;;;;;31.13;14.23;;;;;;;-4.72;81.19;92054.75;1851521;75;21907;-74
2021/01/28 02:23:27;;;;;;;24.47;12.70;;;;;;;-4.74;81.30;92046.89;1898938;75;21634;-73
2021/01/28 02:25:54;;;;;;;26.30;13.80;;;;;;;-4.74;81.39;92043.72;1848505;77;21047;-75
2021/01/28 02:28:23;;;;;;;21.80;12.10;;;;;;;-4.74;81.42;92035.76;1893862;75;21123;-74
2021/01/28 02:30:55;;;;;;;23.13;12.33;;;;;;;-4.75;81.39;92032.09;1843132;75;21145;-73
2021/01/28 02:33:49;;;;;;;19.93;10.87;;;;;;;-4.76;81.40;92030.55;1833859;77;21186;-73
2021/01/28 02:36:19;;;;;;;;;;;;;;;-4.76;81.45;92030.00;1868364;75;21171;-73
2021/01/28 02:38:47;;;;;;;18.67;10.23;;;;;;;-4.76;81.33;92023.38;1882403;75;20576;-73
2021/01/28 02:41:15;;;;;;;16.87;9.80;;;;;;;-4.80;81.16;92034.42;1814176;79;21136;-73
2021/01/28 02:43:47;;;;;;;16.13;9.43;;;;;;;-4.74;81.32;92029.66;1898210;75;21096;-74
2021/01/28 02:46:32;;;;;;;13.20;8.23;;;;;;;-4.70;81.02;92025.23;1818348;76;39881;-74
2021/01/28 02:49:02;;;;;;;16.63;9.80;;;;;;;-4.72;80.97;92027.45;1846603;76;21112;-73
2021/01/28 02:51:32;;;;;;;16.97;9.00;;;;;;;-4.75;80.93;92023.58;1817537;76;21047;-74
2021/01/28 02:54:02;;;;;;;15.27;9.00;;;;;;;-4.77;80.91;92021.06;1847216;76;21161;-74
2021/01/28 02:56:30;;;;;;;18.17;10.53;;;;;;;-4.81;80.97;92023.61;1872404;76;21121;-74
2021/01/28 02:58:59;;;;;;;13.73;10.13;;;;;;;-4.76;81.04;92029.23;1819196;78;21146;-74
2021/01/28 03:01:29;;;;;;;17.07;9.20;;;;;;;-4.71;80.99;92021.81;1816070;77;21500;-74
2021/01/28 03:03:59;;;;;;;15.73;9.53;;;;;;;-4.70;81.02;92024.70;1814148;79;21596;-73
2021/01/28 03:06:27;;;;;;;14.73;9.00;;;;;;;-4.68;81.03;92017.16;1814216;79;21113;-73
2021/01/28 03:08:57;;;;;;;18.50;11.23;;;;;;;-4.62;80.75;92016.40;1821079;76;21178;-73
2021/01/28 03:11:35;;;;;;;21.23;11.60;;;;;;;-4.60;80.65;92009.42;1856332;75;21641;-74
2021/01/28 03:14:03;;;;;;;21.07;12.27;;;;;;;-4.59;80.61;92010.95;1898207;75;21064;-73
2021/01/28 03:16:41;;;;;;;20.93;11.93;;;;;;;-4.60;80.58;92012.07;1859881;75;21170;-74
2021/01/28 03:19:11;;;;;;;22.03;12.60;;;;;;;-4.63;80.71;92013.50;1882303;75;21144;-73
2021/01/28 03:21:39;;;;;;;25.43;13.57;;;;;;;-4.65;80.79;92012.52;1881120;75;21518;-75
2021/01/28 03:24:09;;;;;;;26.70;15.63;;;;;;;-4.63;80.80;92014.83;1842505;77;21694;-72
2021/01/28 03:26:39;;;;;;;28.13;13.80;;;;;;;-4.66;80.76;92009.66;1813838;79;21136;-74
2021/01/28 03:29:09;;;;;;;24.13;12.33;;;;;;;-4.69;80.74;92018.28;1813848;79;22198;-73
2021/01/28 03:31:40;;;;;;;17.63;10.60;;;;;;;-4.70;80.96;92011.97;1862417;75;21144;-73
2021/01/28 03:34:11;;;;;;;19.40;11.83;;;;;;;-4.70;80.92;92007.45;1872361;75;21159;-73
2021/01/28 03:36:38;;;;;;;20.57;10.27;;;;;;;-4.68;80.94;92007.11;1868876;75;21628;-73
2021/01/28 03:39:08;;;;;;;20.73;11.10;;;;;;;-4.64;80.78;92000.80;1884718;75;21630;-73
2021/01/28 03:41:37;;;;;;;24.37;12.30;;;;;;;-4.61;80.57;92005.23;1828820;78;21093;-73
2021/01/28 03:44:05;;;;;;;32.90;16.80;;;;;;;-4.63;80.59;92004.22;1899810;75;21598;-75
2021/01/28 03:46:33;;;;;;;38.60;21.30;;;;;;;-4.64;80.71;92011.41;1867853;75;21060;-75
2021/01/28 03:49:01;;;;;;;42.60;22.07;;;;;;;-4.66;80.77;92009.66;1881241;75;21186;-74
2021/01/28 03:51:33;;;;;;;30.50;16.57;;;;;;;-4.69;80.81;92005.58;1871457;75;21615;-73
2021/01/28 03:54:19;;;;;;;21.10;10.77;;;;;;;-4.73;81.02;92005.47;1824434;75;21166;-73
2021/01/28 03:56:57;;;;;;;18.37;9.97;;;;;;;-4.77;80.95;92007.25;1849090;75;21170;-74
2021/01/28 03:59:25;;;;;;;22.53;10.43;;;;;;;-4.80;81.03;92003.93;1863201;77;21116;-73
2021/01/28 04:02:11;;;;;;;19.70;10.37;;;;;;;-4.80;81.23;92012.44;1838565;76;21627;-73
2021/01/28 04:04:57;;;;;;;29.23;15.60;;;;;;;-4.77;81.08;92011.22;1869302;76;21160;-72
2021/01/28 04:07:42;;;;;;;33.13;16.20;;;;;;;-4.80;81.05;92006.58;1837453;76;21122;-72
2021/01/28 04:10:16;;;;;;;26.00;14.00;;;;;;;-4.80;81.24;92003.16;1853700;76;21156;-72
2021/01/28 04:12:45;;;;;;;22.90;12.50;;;;;;;-4.76;81.20;92002.16;1855829;76;21403;-72
2021/01/28 04:15:15;;;;;;;25.10;13.03;;;;;;;-4.71;81.17;92003.24;1824488;75;21188;-73
2021/01/28 04:17:44;;;;;;;22.40;12.33;;;;;;;-4.66;81.08;92003.03;1898005;75;21119;-72
2021/01/28 04:20:16;;;;;;;20.17;11.27;;;;;;;-4.62;80.99;92007.11;1816055;75;21259;-72
2021/01/28 04:22:46;;;;;;;20.23;11.20;;;;;;;-4.62;80.79;92000.48;1814002;79;21615;-73
2021/01/28 04:25:15;;;;;;;18.40;10.40;;;;;;;-4.58;80.71;92008.55;1837300;77;21178;-73
2021/01/28 04:27:43;;;;;;;20.17;11.00;;;;;;;-4.63;80.53;92008.20;1872197;75;21562;-75
2021/01/28 04:30:25;;;;;;;21.73;12.28;;;;;;;-4.68;80.56;92009.20;1882935;75;21247;-73
2021/01/28 04:32:54;;;;;;;20.67;11.07;;;;;;;-4.69;80.11;92010.88;1856947;77;22140;-73
2021/01/28 04:35:26;;;;;;;18.10;8.67;;;;;;;-4.69;80.16;92008.23;1828228;78;21199;-73
2021/01/28 04:37:53;;;;;;;11.53;7.40;;;;;;;-4.74;79.40;92007.91;1836698;76;21033;-74
2021/01/28 04:40:40;;;;;;;7.70;4.20;;;;;;;-4.76;79.49;92008.78;1828911;76;21190;-74
2021/01/28 04:43:29;;;;;;;7.73;4.00;;;;;;;-4.77;79.00;92007.25;1834204;77;21154;-73
2021/01/28 04:46:06;;;;;;;12.70;6.67;;;;;;;-4.76;78.77;92014.64;1856167;75;21053;-75
2021/01/28 04:48:36;;;;;;;14.43;7.47;;;;;;;-4.79;78.53;92017.41;1856823;76;21174;-73
2021/01/28 04:51:06;;;;;;;13.80;7.47;;;;;;;-4.82;78.70;92019.95;1815222;78;21132;-73
2021/01/28 04:53:50;;;;;;;11.87;6.77;;;;;;;-4.84;79.02;92020.84;1799076;79;21204;-75
2021/01/28 04:56:23;;;;;;;10.70;5.87;;;;;;;-4.87;78.81;92015.65;1817900;77;21208;-74
2021/01/28 04:59:13;;;;;;;10.97;6.07;;;;;;;-4.86;78.60;92026.47;1884596;75;21594;-74
2021/01/28 05:01:40;;;;;;;13.90;8.07;;;;;;;-4.86;78.74;92031.77;1839517;76;21419;-74
2021/01/28 05:04:14;;;;;;;12.53;7.50;;;;;;;-4.88;78.89;92032.67;1846271;76;21557;-73
2021/01/28 05:06:51;;;;;;;9.40;6.70;;;;;;;-4.89;79.03;92023.95;1860321;76;21410;-73
2021/01/28 05:09:23;;;;;;;8.10;5.67;;;;;;;-4.91;79.08;92030.67;1819900;76;21174;-73
2021/01/28 05:12:09;;;;;;;12.73;6.97;;;;;;;-4.93;79.06;92035.00;1876014;76;21145;-73
2021/01/28 05:14:40;;;;;;;11.90;6.67;;;;;;;-4.89;79.26;92038.53;1707811;81;21587;-73
2021/01/28 05:17:29;;;;;;;11.20;6.00;;;;;;;-4.86;79.50;92040.28;1807856;79;21402;-73
2021/01/28 05:20:17;;;;;;;11.07;6.00;;;;;;;-4.80;79.37;92046.92;1817431;77;21490;-73
2021/01/28 05:23:09;;;;;;;12.37;6.87;;;;;;;-4.73;79.04;92049.23;1770337;79;21203;-74
2021/01/28 05:25:40;;;;;;;9.55;5.83;;;;;;;-4.73;78.96;92045.81;1814171;76;21166;-74
2021/01/28 05:28:42;;;;;;;9.80;6.30;;;;;;;-4.73;78.75;92039.95;1812070;78;21163;-73
2021/01/28 05:31:31;;;;;;;14.33;7.53;;;;;;;-4.73;78.87;92045.25;1826120;78;21519;-73
2021/01/28 05:34:12;;;;;;;16.27;8.23;;;;;;;-4.73;78.96;92049.23;1785856;77;22234;-74
2021/01/28 05:36:46;;;;;;;14.03;8.17;;;;;;;-4.73;78.99;92051.11;1840971;77;21600;-73
2021/01/28 05:39:23;;;;;;;14.87;8.33;;;;;;;-4.73;79.23;92054.53;1822136;78;21103;-73
2021/01/28 05:41:51;;;;;;;15.80;8.03;;;;;;;-4.68;79.12;92046.34;1900096;75;21088;-73
2021/01/28 05:44:23;;;;;;;17.53;8.30;;;;;;;-4.65;78.84;92054.97;1805868;76;21201;-73
2021/01/28 05:47:12;;;;;;;15.53;7.10;;;;;;;-4.67;78.65;92064.35;1864724;76;21813;-74
2021/01/28 05:49:44;;;;;;;13.30;8.17;;;;;;;-4.66;78.67;92060.06;1811760;76;21148;-74
2021/01/28 05:52:26;;;;;;;8.63;5.83;;;;;;;-4.61;78.45;92063.03;1834942;77;21171;-73
2021/01/28 05:55:19;;;;;;;10.13;5.42;;;;;;;-4.61;78.29;92063.03;1851977;77;21620;-75
2021/01/28 05:58:08;;;;;;;14.15;8.53;;;;;;;-4.62;78.29;92067.36;1802850;75;21097;-75
2021/01/28 06:00:59;;;;;;;17.00;9.30;;;;;;;-4.65;78.45;92066.91;1864417;75;21398;-73
2021/01/28 06:03:31;;;;;;;18.27;9.33;;;;;;;-4.70;78.56;92068.47;1858258;77;21164;-75
2021/01/28 06:06:33;;;;;;;19.40;9.63;;;;;;;-4.71;78.85;92073.53;1799533;79;21204;-74
2021/01/28 06:09:28;;;;;;;21.03;10.30;;;;;;;-4.69;78.99;92063.38;1835444;77;21187;-73
2021/01/28 06:12:35;;;;;;;16.73;9.13;;;;;;;-4.65;78.75;92060.83;1854462;77;21195;-73
2021/01/28 06:15:28;;;;;;;17.47;9.30;;;;;;;-4.64;79.02;92063.13;1824665;78;21629;-74
2021/01/28 06:18:32;;;;;;;20.57;10.78;;;;;;;-4.64;79.11;92063.13;1889689;75;21477;-73
2021/01/28 06:21:38;;;;;;;21.00;11.07;;;;;;;-4.64;78.96;92069.77;1804882;79;21144;-74
2021/01/28 06:24:40;;;;;;;17.90;8.73;;;;;;;-4.60;78.87;92066.45;1805772;79;21125;-73
2021/01/28 06:27:32;;;;;;;19.53;9.53;;;;;;;-4.54;78.46;92067.78;1814065;79;21233;-74
2021/01/28 06:30:26;;;;;;;29.40;16.77;;;;;;;-4.59;78.52;92058.70;1824019;77;22709;-74
2021/01/28 06:33:30;;;;;;;35.37;19.23;;;;;;;-4.68;78.62;92053.53;1872890;76;21188;-76
2021/01/28 06:36:32;;;;;;;30.60;16.43;;;;;;;-4.67;78.92;92059.05;1798002;79;21204;-75
2021/01/28 06:39:36;;;;;;;28.50;14.67;;;;;;;-4.65;79.08;92052.31;1881618;76;21545;-73
2021/01/28 06:42:21;;;;;;;24.33;13.23;;;;;;;-4.65;78.98;92065.58;1797228;79;21659;-74
2021/01/28 06:45:14;;;;;;;23.57;12.67;;;;;;;-4.64;78.95;92066.34;1817027;78;22304;-74
2021/01/28 06:48:11;;;;;;;24.20;10.83;;;;;;;-4.59;78.69;92067.44;1896475;75;21131;-73
2021/01/28 06:50:58;;;;;;;23.67;12.13;;;;;;;-4.55;78.96;92066.22;1865960;75;21119;-75
2021/01/28 06:53:48;;;;;;;30.83;14.10;;;;;;;-4.52;78.71;92066.33;1886771;75;21531;-73
2021/01/28 06:56:30;;;;;;;30.97;13.87;;;;;;;-4.54;78.55;92059.83;1842954;75;21153;-73
2021/01/28 06:59:47;;;;;;;33.17;15.30;;;;;;;-4.59;78.69;92066.66;1835268;77;21371;-75
2021/01/28 07:02:32;;;;;;;26.57;13.57;;;;;;;-4.61;78.89;92054.30;1873592;75;21140;-75
2021/01/28 07:05:49;;;;;;;20.13;10.07;;;;;;;-4.65;78.93;92054.20;1874139;75;21194;-75
2021/01/28 07:08:43;;;;;;;20.83;12.03;;;;;;;-4.70;79.08;92049.90;1880101;75;21115;-74
2021/01/28 07:11:41;;;;;;;14.90;7.67;;;;;;;-4.75;79.16;92050.10;1842598;75;21205;-74
2021/01/28 07:14:27;;;;;;;11.00;6.27;;;;;;;-4.79;79.37;92053.20;1840202;77;21181;-76
2021/01/28 07:17:19;;;;;;;10.10;6.77;;;;;;;-4.77;79.59;92060.28;1876182;75;21156;-74
2021/01/28 07:19:56;;;;;;;14.47;7.07;;;;;;;-4.74;79.71;92060.16;1834059;76;21120;-76
2021/01/28 07:22:33;;;;;;;11.97;7.27;;;;;;;-4.71;79.72;92060.27;1780156;80;21105;-75
2021/01/28 07:25:33;;;;;;;14.53;7.33;;;;;;;-4.69;79.58;92061.27;1782485;78;21109;-75
2021/01/28 07:28:20;;;;;;;19.67;9.03;;;;;;;-4.69;79.47;92062.05;1845042;76;22084;-75
2021/01/28 07:31:01;;;;;;;15.93;9.13;;;;;;;-4.70;79.57;92059.70;1873431;76;21434;-76
2021/01/28 07:33:34;;;;;;;23.37;10.57;;;;;;;-4.69;79.67;92058.63;1803435;79;21167;-75
2021/01/28 07:36:17;;;;;;;37.07;15.70;;;;;;;-4.67;79.80;92057.72;1862471;75;21185;-74
2021/01/28 07:39:03;;;;;;;30.90;14.63;;;;;;;-4.64;79.91;92067.11;1839572;77;22404;-73
2021/01/28 07:41:59;;;;;;;32.70;14.00;;;;;;;-4.65;80.13;92067.46;1778156;79;21179;-73
2021/01/28 07:44:40;;;;;;;28.00;13.83;;;;;;;-4.62;80.20;92066.03;1854090;76;21200;-74
2021/01/28 07:47:19;;;;;;;25.20;13.70;;;;;;;-4.62;80.25;92064.70;1840121;76;21469;-74
2021/01/28 07:50:29;;;;;;;27.80;12.77;;;;;;;-4.60;80.28;92066.45;1831778;76;21157;-73
2021/01/28 07:53:00;;;;;;;13.57;7.50;;;;;;;-4.55;80.51;92070.20;1850991;76;21201;-76
2021/01/28 07:55:43;;;;;;;12.40;6.73;;;;;;;-4.52;79.84;92072.19;1822594;78;21185;-74
2021/01/28 07:58:25;;;;;;;17.23;8.10;;;;;;;-4.48;79.58;92075.72;1847291;75;21243;-74
2021/01/28 08:00:53;;;;;;;11.13;5.87;;;;;;;-4.45;79.65;92072.40;1894216;75;21092;-76
2021/01/28 08:03:26;;;;;;;12.73;7.90;;;;;;;-4.40;79.57;92072.95;1864185;76;20923;-76
2021/01/28 08:05:55;;;;;;;12.83;8.57;;;;;;;-4.35;79.52;92063.22;1922104;74;21113;-75
2021/01/28 08:08:23;;;;;;;15.80;8.40;;;;;;;-4.33;79.33;92061.75;1901506;74;21074;-75
2021/01/28 08:10:53;;;;;;;17.50;9.10;;;;;;;-4.35;79.29;92070.62;1862791;75;21363;-74
2021/01/28 08:13:29;;;;;;;15.53;7.80;;;;;;;-4.38;79.50;92063.33;1839214;77;21169;-74
2021/01/28 08:16:06;;;;;;;18.27;9.37;;;;;;;-4.37;79.62;92066.19;1853399;77;21180;-73
2021/01/28 08:18:40;;;;;;;24.10;10.28;;;;;;;-4.33;79.90;92067.06;1853979;77;21165;-74
2021/01/28 08:21:20;;;;;;;17.83;10.73;;;;;;;-4.29;79.88;92065.28;1824392;77;21251;-74
2021/01/28 08:23:49;;;;;;;24.30;12.63;;;;;;;-4.26;79.93;92066.50;1915327;74;21527;-75
2021/01/28 08:26:31;;;;;;;17.20;10.20;;;;;;;-4.26;79.99;92063.29;1905375;74;21117;-74
2021/01/28 08:29:09;;;;;;;18.50;9.70;;;;;;;-4.25;79.81;92066.19;1863092;75;21231;-74
2021/01/28 08:31:51;;;;;;;17.13;9.30;;;;;;;-4.25;79.77;92067.52;1841290;77;21152;-74
2021/01/28 08:34:27;;;;;;;19.87;9.73;;;;;;;-4.23;79.78;92068.49;1852696;77;21168;-75
2021/01/28 08:37:02;;;;;;;17.67;9.73;;;;;;;-4.20;79.78;92069.16;1855688;73;21651;-74
2021/01/28 08:39:33;;;;;;;11.88;7.62;;;;;;;-4.17;79.69;92067.16;1927434;74;21199;-73
2021/01/28 08:42:11;;;;;;;14.10;7.83;;;;;;;-4.13;79.47;92070.69;1893582;74;21584;-76
2021/01/28 08:44:40;;;;;;;14.80;8.40;;;;;;;-4.12;79.37;92070.89;1890955;75;21429;-75
2021/01/28 08:47:15;;;;;;;13.70;7.80;;;;;;;-4.08;79.28;92075.75;1910348;73;21100;-75
2021/01/28 08:49:45;;;;;;;12.27;7.73;;;;;;;-4.02;79.02;92074.98;1915412;74;21168;-74
2021/01/28 08:52:16;;;;;;;13.83;8.50;;;;;;;-3.98;78.81;92075.28;1889675;75;21192;-74
2021/01/28 08:54:46;;;;;;;13.70;8.17;;;;;;;-3.94;78.60;92070.84;1889550;75;21101;-74
2021/01/28 08:57:19;;;;;;;11.43;6.90;;;;;;;-3.88;78.33;92075.34;1925467;74;21152;-74
2021/01/28 08:59:52;;;;;;;20.00;8.77;;;;;;;-3.84;78.08;92068.25;1898482;74;21469;-74
2021/01/28 09:02:35;;;;;;;14.63;8.03;;;;;;;-3.82;77.63;92066.59;1910881;74;21175;-74
2021/01/28 09:05:16;;;;;;;10.33;5.80;;;;;;;-3.78;77.40;92076.77;1911728;74;21105;-73
2021/01/28 09:07:52;;;;;;;13.73;5.30;;;;;;;-3.76;76.71;92073.99;1889468;75;21136;-75
2021/01/28 09:10:40;;;;;;;12.30;6.17;;;;;;;-3.72;76.13;92076.19;1888102;75;21141;-74
2021/01/28 09:13:22;;;;;;;15.27;8.27;;;;;;;-3.64;75.84;92076.38;1889575;75;21089;-76
2021/01/28 09:16:04;;;;;;;11.43;5.80;;;;;;;-3.57;75.44;92069.91;1889022;75;21182;-74
2021/01/28 09:18:35;;;;;;;11.20;6.73;;;;;;;-3.49;75.19;92073.75;1878449;75;21577;-77
2021/01/28 09:21:16;;;;;;;10.50;6.07;;;;;;;-3.44;75.15;92064.75;1843098;75;21154;-74
2021/01/28 09:24:04;;;;;;;12.23;6.13;;;;;;;-3.42;74.83;92065.97;1840921;77;21032;-73
2021/01/28 09:26:35;;;;;;;14.07;6.23;;;;;;;-3.37;74.51;92062.28;1852287;76;21426;-75
2021/01/28 09:29:24;;;;;;;32.13;11.07;;;;;;;-3.32;74.34;92059.92;1801685;76;22183;-73
2021/01/28 09:31:52;;;;;;;18.53;7.67;;;;;;;-3.30;74.20;92058.48;1853245;76;21171;-74
2021/01/28 09:34:29;;;;;;;17.57;7.10;;;;;;;-3.30;73.49;92058.48;1836029;76;21699;-75
2021/01/28 09:37:11;;;;;;;17.33;7.80;;;;;;;-3.28;73.27;92062.88;1871696;76;21572;-73
2021/01/28 09:39:45;;;;;;;16.53;7.97;;;;;;;-3.24;73.30;92048.34;1801261;79;21222;-75
2021/01/28 09:42:30;;;;;;;17.20;8.03;;;;;;;-3.19;72.91;92044.89;1837785;77;22685;-73
2021/01/28 09:45:10;;;;;;;10.37;5.27;;;;;;;-3.13;72.71;92040.64;1863457;76;21173;-76
2021/01/28 09:47:38;;;;;;;7.00;4.00;;;;;;;-3.11;72.53;92041.08;1855127;76;21138;-74
2021/01/28 09:50:10;;;;;;;6.70;4.30;;;;;;;-3.07;71.79;92038.72;1854088;76;21089;-76
2021/01/28 09:52:43;;;;;;;7.63;4.67;;;;;;;-3.03;71.32;92034.25;1867581;76;21281;-76
2021/01/28 09:55:17;;;;;;;6.00;4.37;;;;;;;-2.97;70.02;92028.10;1844064;77;21827;-75
2021/01/28 09:57:45;;;;;;;8.63;4.77;;;;;;;-2.90;69.98;92030.16;1881087;76;21129;-75
2021/01/28 10:00:16;;;;;;;6.83;3.60;;;;;;;-2.82;69.43;92028.67;1849420;76;21168;-75
2021/01/28 10:02:59;;;;;;;42.70;21.07;;;;;;;-2.68;67.65;92025.55;1859482;76;21168;-75
2021/01/28 10:05:31;;;;;;;12.93;7.30;;;;;;;-2.53;67.54;92020.75;1841647;76;21147;-74
2021/01/28 10:09:15;;;;;;;22.77;11.33;;;;;;;-2.27;66.06;92004.19;1853019;76;22750;-75
2021/01/28 10:11:45;;;;;;;32.57;17.40;;;;;;;-2.24;66.37;92012.81;1769464;77;21207;-75
2021/01/28 10:14:12;;;;;;;7.97;4.53;;;;;;;-2.18;66.54;92008.53;1764276;80;22203;-75
2021/01/28 10:16:40;;;;;;;6.43;4.00;;;;;;;-2.23;66.32;92017.01;1716511;82;21239;-75
2021/01/28 10:19:07;;;;;;;8.33;4.23;;;;;;;-2.27;65.97;92011.41;1732933;81;21424;-75
2021/01/28 10:21:35;;;;;;;9.13;5.43;;;;;;;-2.30;65.05;92016.09;1744025;82;21153;-75
2021/01/28 10:24:05;;;;;;;14.07;6.13;;;;;;;-2.31;65.71;92015.89;1753869;81;21183;-75
2021/01/28 10:26:32;;;;;;;9.00;5.27;;;;;;;-2.27;66.17;92015.40;1783585;79;22152;-76
2021/01/28 10:29:00;;;;;;;9.50;4.93;;;;;;;-2.16;65.73;92016.39;1781996;79;22249;-75
2021/01/28 10:31:29;;;;;;;8.33;4.85;;;;;;;-2.09;65.65;92015.20;1780110;79;21202;-75
2021/01/28 10:33:57;;;;;;;3.12;2.25;;;;;;;-2.10;65.36;92011.57;1771998;79;21103;-75
2021/01/28 10:36:25;;;;;;;4.70;2.50;;;;;;;-2.14;63.41;92010.17;1772683;80;21091;-75
2021/01/28 10:38:53;;;;;;;7.30;3.40;;;;;;;-2.16;62.45;92019.62;1772517;79;21374;-75
2021/01/28 10:41:20;;;;;;;6.67;3.70;;;;;;;-2.17;62.94;92021.52;1771143;79;21197;-75
2021/01/28 10:43:49;;;;;;;5.00;3.03;;;;;;;-2.16;63.15;92020.95;1771751;79;21134;-75
2021/01/28 10:46:17;;;;;;;5.42;4.03;;;;;;;-2.14;63.27;92022.69;1773367;79;21649;-76
2021/01/28 10:48:45;;;;;;;4.55;3.35;;;;;;;-2.16;62.92;92024.38;1770709;79;21201;-76
2021/01/28 10:51:13;;;;;;;6.80;3.97;;;;;;;-2.23;63.18;92017.58;1770699;79;21271;-75
2021/01/28 10:53:40;;;;;;;6.73;3.83;;;;;;;-2.30;63.29;92011.53;1770626;79;21202;-75
2021/01/28 10:56:08;;;;;;;5.53;3.20;;;;;;;-2.34;63.62;92008.59;1771200;79;21142;-77
2021/01/28 12:26:16;;;;;;;6.20;4.03;;;;;;;-2.58;57.27;91911.14;1784534;80;21045;-79
2021/01/28 12:28:43;;;;;;;4.70;3.50;;;;;;;-2.83;57.61;91902.07;1782490;80;21209;-76
2021/01/28 12:31:13;;;;;;;13.07;8.90;;;;;;;-2.85;59.49;91902.23;1750207;82;21196;-77
2021/01/28 12:33:41;;;;;;;6.27;3.97;;;;;;;-2.83;59.60;91898.08;1750242;82;21181;-80
2021/01/28 12:36:10;;;;;;;6.93;4.63;;;;;;;-2.78;59.75;91899.16;1766400;80;21242;-81
2021/01/28 12:38:38;;;;;;;5.03;3.40;;;;;;;-2.78;58.03;91893.06;1799063;78;21661;-81
2021/01/28 12:41:05;;;;;;;7.83;5.10;;;;;;;-2.82;59.18;91890.87;1841168;77;21248;-76
2021/01/28 12:43:33;;;;;;;9.50;5.20;;;;;;;-2.86;59.79;91896.11;1849982;77;21214;-80
2021/01/28 12:46:00;;;;;;;8.47;4.47;;;;;;;-2.80;58.77;91888.08;1838241;77;21203;-77
2021/01/28 12:48:28;;;;;;;8.77;5.47;;;;;;;-2.82;58.49;91895.66;1773372;78;21243;-79
2021/01/28 12:50:56;;;;;;;8.80;4.73;;;;;;;-2.77;59.46;91894.03;1810510;75;21185;-76
2021/01/28 12:53:23;;;;;;;7.60;4.97;;;;;;;-2.65;59.29;91892.37;1866714;76;21175;-77
2021/01/28 12:55:51;;;;;;;6.20;3.63;;;;;;;-2.62;57.54;91893.77;1833955;77;21116;-76
2021/01/28 12:58:21;;;;;;;6.37;4.27;;;;;;;-2.64;59.31;91903.21;1834833;78;21622;-83
2021/01/28 13:00:49;;;;;;;5.37;3.53;;;;;;;-2.71;60.75;91907.82;1834821;78;21200;-78
2021/01/28 13:03:17;;;;;;;5.50;3.50;;;;;;;-2.76;57.77;91908.11;1835162;78;21151;-78
2021/01/28 13:05:45;;;;;;;4.37;3.37;;;;;;;-2.82;57.82;91907.63;1835405;78;21128;-75
2021/01/28 13:08:13;;;;;;;5.63;3.40;;;;;;;-2.82;58.34;91905.50;1835372;78;21404;-77
2021/01/28 13:10:42;;;;;;;4.47;3.10;;;;;;;-2.79;57.17;91906.91;1834741;78;21168;-78
2021/01/28 13:13:10;;;;;;;6.17;3.50;;;;;;;-2.85;56.08;91892.92;1835709;78;21583;-77
2021/01/28 13:15:38;;;;;;;5.27;3.17;;;;;;;-2.99;56.27;91892.81;1835959;78;21187;-77
2021/01/28 13:18:07;;;;;;;7.67;4.10;;;;;;;-3.13;56.72;91893.06;1835403;78;21140;-77
2021/01/28 13:20:36;;;;;;;5.07;3.00;;;;;;;-3.22;57.42;91890.60;1835932;77;21239;-75
2021/01/28 13:23:03;;;;;;;4.13;3.40;;;;;;;-3.19;57.52;91891.25;1835588;78;21619;-76
2021/01/28 13:25:31;;;;;;;4.87;3.43;;;;;;;-3.11;57.38;91882.86;1835707;78;21523;-74
2021/01/28 13:27:58;;;;;;;4.47;3.27;;;;;;;-3.04;57.15;91887.01;1836448;77;21199;-76
2021/01/28 13:30:27;;;;;;;6.57;4.27;;;;;;;-2.98;56.92;91883.71;1835443;78;21152;-77
2021/01/28 13:32:56;;;;;;;4.50;3.17;;;;;;;-2.88;56.91;91888.28;1835158;78;21132;-78